Time;durP1;ratioP1;P1;durP2;ratioP2;P2;SDS_P1;SDS_P2;PMS_P1;PMS_P2;Temp;Humidity;BMP_temperature;BMP_pressure;BME280_temperature;BME280_humidity;BME280_pressure;Samples;Min_cycle;Max_cycle;Signal;HPM_P1;HPM_P2
2021/12/11 00:02:17;;;;;;;18.23;13.47;;;;;;;;;;5028983;28;20490;-75
2021/12/11 00:04:43;;;;;;;22.53;14.97;;;;;;;;;;5027327;28;20824;-74
2021/12/11 00:07:10;;;;;;;19.63;13.67;;;;;;;;;;5025207;28;20435;-75
2021/12/11 00:09:38;;;;;;;20.83;14.37;;;;;;;;;;5029456;28;20981;-73
2021/12/11 00:12:06;;;;;;;19.13;13.67;;;;;;;;;;5026585;28;20896;-74
2021/12/11 00:14:32;;;;;;;20.63;15.40;;;;;;;;;;5023858;28;20538;-74
2021/12/11 00:16:58;;;;;;;18.07;13.10;;;;;;;;;;5028047;28;20970;-73
2021/12/11 00:19:26;;;;;;;17.60;13.10;;;;;;;;;;5026685;28;20441;-74
2021/12/11 00:21:51;;;;;;;18.23;13.97;;;;;;;;;;5023448;28;20196;-74
2021/12/11 00:24:26;;;;;;;16.03;12.50;;;;;;;;;;5022584;28;20453;-73
2021/12/11 00:26:56;;;;;;;19.33;13.23;;;;;;;;;;5026778;28;20595;-73
2021/12/11 00:29:23;;;;;;;16.77;12.87;;;;;;;;;;5026217;28;20435;-73
2021/12/11 00:31:50;;;;;;;17.47;13.63;;;;;;;;;;5024109;28;21422;-74
2021/12/11 00:34:16;;;;;;;19.50;12.67;;;;;;;;;;5027843;28;21033;-74
2021/12/11 00:36:49;;;;;;;16.40;12.73;;;;;;;;;;5029888;28;20434;-73
2021/12/11 00:39:15;;;;;;;16.43;12.57;;;;;;;;;;5029399;28;20430;-73
2021/12/11 00:41:41;;;;;;;16.97;12.77;;;;;;;;;;5026921;28;20448;-75
2021/12/11 00:44:07;;;;;;;19.43;13.87;;;;;;;;;;5024938;28;20469;-73
2021/12/11 00:46:33;;;;;;;16.00;11.93;;;;;;;;;;5024637;28;20437;-74
2021/12/11 00:49:15;;;;;;;17.43;13.00;;;;;;;;;;5027552;28;20187;-74
2021/12/11 00:51:41;;;;;;;16.50;12.63;;;;;;;;;;5025396;28;20180;-73
2021/12/11 00:54:07;;;;;;;16.17;12.30;;;;;;;;;;5026595;28;20503;-73
2021/12/11 00:56:34;;;;;;;20.97;14.10;;;;;;;;;;5021519;28;20250;-73
2021/12/11 00:59:01;;;;;;;15.27;12.83;;;;;;;;;;5026637;28;20442;-74
2021/12/11 01:01:32;;;;;;;14.80;11.80;;;;;;;;;;5024539;28;20430;-74
2021/12/11 01:04:00;;;;;;;18.93;12.00;;;;;;;;;;5024514;28;21056;-74
2021/12/11 01:06:37;;;;;;;17.47;12.30;;;;;;;;;;5022276;28;20437;-75
2021/12/11 01:09:05;;;;;;;17.53;12.40;;;;;;;;;;5020262;28;20430;-74
2021/12/11 01:11:35;;;;;;;15.10;11.90;;;;;;;;;;5027519;28;20515;-75
2021/12/11 01:14:11;;;;;;;17.53;12.20;;;;;;;;;;5024744;28;20452;-74
2021/12/11 01:16:38;;;;;;;14.40;11.30;;;;;;;;;;5029942;28;20477;-73
2021/12/11 01:19:04;;;;;;;15.80;11.00;;;;;;;;;;5028657;28;20447;-74
2021/12/11 01:24:29;;;;;;;19.33;12.23;;;;;;;;;;5028477;28;20469;-75
2021/12/11 01:26:56;;;;;;;16.27;10.70;;;;;;;;;;5045604;28;20418;-75
2021/12/11 01:29:23;;;;;;;16.80;12.50;;;;;;;;;;5025357;28;23455;-75
2021/12/11 01:31:49;;;;;;;16.57;12.30;;;;;;;;;;5026996;28;21316;-74
2021/12/11 01:34:14;;;;;;;17.60;11.40;;;;;;;;;;5025663;28;20452;-73
2021/12/11 01:36:42;;;;;;;17.10;12.40;;;;;;;;;;5024539;28;20199;-74
2021/12/11 01:39:10;;;;;;;17.80;12.20;;;;;;;;;;5027964;28;20243;-74
2021/12/11 01:41:35;;;;;;;16.90;12.33;;;;;;;;;;5027139;28;20510;-74
2021/12/11 01:44:04;;;;;;;17.80;12.80;;;;;;;;;;5042009;28;20439;-76
2021/12/11 01:46:30;;;;;;;16.67;12.27;;;;;;;;;;5023301;28;20187;-75
2021/12/11 01:49:00;;;;;;;17.77;12.73;;;;;;;;;;5030385;28;20430;-74
2021/12/11 01:51:29;;;;;;;17.70;13.30;;;;;;;;;;5030853;28;20173;-76
2021/12/11 01:54:03;;;;;;;18.00;12.53;;;;;;;;;;5023689;28;20447;-74
2021/12/11 01:56:33;;;;;;;14.97;10.87;;;;;;;;;;5026944;28;20475;-74
2021/12/11 01:58:59;;;;;;;16.20;12.10;;;;;;;;;;5025681;28;20453;-73
2021/12/11 02:01:28;;;;;;;15.63;12.13;;;;;;;;;;5025052;28;20442;-73
2021/12/11 02:03:54;;;;;;;17.23;12.97;;;;;;;;;;5022669;28;20470;-74
2021/12/11 02:06:20;;;;;;;15.30;11.53;;;;;;;;;;5029348;28;20969;-73
2021/12/11 02:08:45;;;;;;;17.00;12.27;;;;;;;;;;5026903;28;20508;-75
2021/12/11 02:11:19;;;;;;;18.37;12.93;;;;;;;;;;5029507;28;20185;-74
2021/12/11 02:14:04;;;;;;;17.50;12.80;;;;;;;;;;5028403;28;20571;-75
2021/12/11 02:16:34;;;;;;;21.03;12.47;;;;;;;;;;5025549;28;20431;-74
2021/12/11 02:19:06;;;;;;;16.43;12.43;;;;;;;;;;5028158;28;20594;-73
2021/12/11 02:21:34;;;;;;;15.83;12.30;;;;;;;;;;5026284;28;20449;-75
2021/12/11 02:24:03;;;;;;;17.67;13.00;;;;;;;;;;5024972;28;20505;-74
2021/12/11 02:26:30;;;;;;;17.00;12.90;;;;;;;;;;5026818;28;20433;-74
2021/12/11 02:29:02;;;;;;;16.97;12.60;;;;;;;;;;5020640;28;20439;-74
2021/12/11 02:31:30;;;;;;;18.70;13.10;;;;;;;;;;5023457;28;20508;-74
2021/12/11 02:34:16;;;;;;;16.27;12.33;;;;;;;;;;5027405;28;20442;-74
2021/12/11 02:36:53;;;;;;;16.27;12.20;;;;;;;;;;5023736;28;20446;-75
2021/12/11 02:39:28;;;;;;;17.10;13.07;;;;;;;;;;5026139;28;20500;-74
2021/12/11 02:42:05;;;;;;;16.20;11.87;;;;;;;;;;5027124;28;21015;-73
2021/12/11 02:44:34;;;;;;;16.67;12.23;;;;;;;;;;5019076;28;20449;-75
2021/12/11 02:47:13;;;;;;;18.00;12.63;;;;;;;;;;5026928;28;20525;-74
2021/12/11 02:49:42;;;;;;;16.17;12.50;;;;;;;;;;5024147;28;20466;-73
2021/12/11 02:52:11;;;;;;;16.40;12.53;;;;;;;;;;5025555;28;21256;-75
2021/12/11 02:54:40;;;;;;;14.33;11.47;;;;;;;;;;5027206;28;20478;-75
2021/12/11 02:57:10;;;;;;;15.20;11.77;;;;;;;;;;5028412;28;20438;-75
2021/12/11 02:59:42;;;;;;;20.23;13.10;;;;;;;;;;5032213;28;20444;-74
2021/12/11 03:02:11;;;;;;;18.73;12.50;;;;;;;;;;5029763;28;20644;-73
2021/12/11 03:04:43;;;;;;;16.10;12.40;;;;;;;;;;5026904;28;20487;-73
2021/12/11 03:07:11;;;;;;;24.20;12.30;;;;;;;;;;5026348;28;20482;-74
2021/12/11 03:09:38;;;;;;;16.80;12.17;;;;;;;;;;5029964;28;20521;-73
2021/12/11 03:12:07;;;;;;;16.13;12.17;;;;;;;;;;5025935;28;20447;-74
2021/12/11 03:14:33;;;;;;;17.83;12.43;;;;;;;;;;5024516;28;20538;-74
2021/12/11 03:16:59;;;;;;;18.07;12.83;;;;;;;;;;5031002;28;20430;-74
2021/12/11 03:19:25;;;;;;;18.87;12.53;;;;;;;;;;5027176;28;20180;-77
2021/12/11 03:21:52;;;;;;;16.43;12.80;;;;;;;;;;5026238;28;20189;-74
2021/12/11 03:24:17;;;;;;;16.20;11.80;;;;;;;;;;5030395;28;20461;-73
2021/12/11 03:26:44;;;;;;;19.97;13.27;;;;;;;;;;5029233;28;20425;-75
2021/12/11 03:29:10;;;;;;;19.10;12.43;;;;;;;;;;5031623;28;20199;-74
2021/12/11 03:31:37;;;;;;;18.57;13.70;;;;;;;;;;5045167;28;20632;-74
2021/12/11 03:34:06;;;;;;;18.40;12.87;;;;;;;;;;5030135;28;20450;-75
2021/12/11 03:36:33;;;;;;;17.70;12.27;;;;;;;;;;5026002;28;20430;-73
2021/12/11 03:39:00;;;;;;;16.83;12.30;;;;;;;;;;5027555;28;20495;-75
2021/12/11 03:41:26;;;;;;;16.90;12.10;;;;;;;;;;5029874;28;20532;-75
2021/12/11 03:43:52;;;;;;;18.93;13.27;;;;;;;;;;5027335;28;20479;-75
2021/12/11 03:46:18;;;;;;;14.60;12.33;;;;;;;;;;5027449;28;20434;-74
2021/12/11 03:48:49;;;;;;;17.83;12.90;;;;;;;;;;5028208;28;20253;-73
2021/12/11 03:51:16;;;;;;;18.40;12.67;;;;;;;;;;5027206;28;20430;-75
2021/12/11 03:53:42;;;;;;;18.23;12.63;;;;;;;;;;5042941;28;21515;-76
2021/12/11 03:56:08;;;;;;;16.07;11.70;;;;;;;;;;5030661;28;20427;-75
2021/12/11 03:58:34;;;;;;;15.53;12.43;;;;;;;;;;5025230;28;20259;-74
2021/12/11 04:01:13;;;;;;;15.50;11.83;;;;;;;;;;5027533;28;20438;-74
2021/12/11 04:03:40;;;;;;;16.67;12.40;;;;;;;;;;5032519;28;20207;-74
2021/12/11 04:06:07;;;;;;;13.53;11.43;;;;;;;;;;5029180;28;20419;-74
2021/12/11 04:08:40;;;;;;;15.67;12.03;;;;;;;;;;5027413;28;20487;-73
2021/12/11 04:11:05;;;;;;;20.20;12.03;;;;;;;;;;5025997;28;20428;-74
2021/12/11 04:13:31;;;;;;;17.33;12.83;;;;;;;;;;5027802;28;20469;-74
2021/12/11 04:15:56;;;;;;;16.80;12.60;;;;;;;;;;5024020;28;20215;-75
2021/12/11 04:18:21;;;;;;;16.87;12.80;;;;;;;;;;5027306;28;20624;-73
2021/12/11 04:20:51;;;;;;;20.07;14.07;;;;;;;;;;5027158;28;20625;-74
2021/12/11 04:23:17;;;;;;;19.07;13.50;;;;;;;;;;5025177;28;20677;-74
2021/12/11 04:25:44;;;;;;;17.70;12.63;;;;;;;;;;5025456;28;20442;-73
2021/12/11 04:28:10;;;;;;;17.97;13.57;;;;;;;;;;5029235;28;20437;-75
2021/12/11 04:30:36;;;;;;;16.53;13.20;;;;;;;;;;5029883;28;20426;-75
2021/12/11 04:33:01;;;;;;;17.80;13.67;;;;;;;;;;5032794;28;20192;-74
2021/12/11 04:35:29;;;;;;;19.83;12.80;;;;;;;;;;5031607;28;20187;-74
2021/12/11 04:37:56;;;;;;;16.00;12.77;;;;;;;;;;5028590;28;20176;-75
2021/12/11 04:40:23;;;;;;;19.00;14.20;;;;;;;;;;5032369;28;20451;-74
2021/12/11 04:43:11;;;;;;;17.90;13.90;;;;;;;;;;5031451;28;20841;-73
2021/12/11 04:45:39;;;;;;;17.00;12.57;;;;;;;;;;5030128;28;20415;-73
2021/12/11 04:48:18;;;;;;;19.00;12.73;;;;;;;;;;5029126;28;20433;-74
2021/12/11 04:50:52;;;;;;;18.33;14.10;;;;;;;;;;5030204;28;22030;-74
2021/12/11 04:59:14;;;;;;;19.40;14.43;;;;;;;;;;5030330;28;20446;-74
2021/12/11 05:02:00;;;;;;;19.80;14.37;;;;;;;;;;5031979;28;20411;-74
2021/12/11 05:04:55;;;;;;;18.20;13.97;;;;;;;;;;5033193;28;20469;-74
2021/12/11 05:09:53;;;;;;;18.50;14.13;;;;;;;;;;5028202;28;20462;-74
2021/12/11 05:14:49;;;;;;;19.73;14.43;;;;;;;;;;5029610;28;20458;-74
2021/12/11 05:17:15;;;;;;;16.50;13.83;;;;;;;;;;5029586;28;20448;-74
2021/12/11 05:19:41;;;;;;;18.10;14.20;;;;;;;;;;5031670;28;20194;-74
2021/12/11 05:22:07;;;;;;;16.13;13.67;;;;;;;;;;5028140;28;20311;-73
2021/12/11 05:24:32;;;;;;;16.80;14.67;;;;;;;;;;5030270;28;20254;-73
2021/12/11 05:26:58;;;;;;;22.37;16.37;;;;;;;;;;5023701;28;20961;-74
2021/12/11 05:29:23;;;;;;;21.73;16.93;;;;;;;;;;5027182;28;20183;-74
2021/12/11 05:31:49;;;;;;;20.70;16.90;;;;;;;;;;5025966;28;20190;-77
2021/12/11 05:34:14;;;;;;;19.20;16.10;;;;;;;;;;5027537;28;20196;-75
2021/12/11 05:36:39;;;;;;;23.87;17.03;;;;;;;;;;5023084;28;20618;-77
2021/12/11 05:39:16;;;;;;;21.33;16.57;;;;;;;;;;5026344;28;20187;-75
2021/12/11 05:41:42;;;;;;;22.63;16.93;;;;;;;;;;5026902;28;20242;-75
2021/12/11 05:44:09;;;;;;;21.97;16.30;;;;;;;;;;5024027;28;20547;-74
2021/12/11 05:46:34;;;;;;;20.37;16.90;;;;;;;;;;5024951;28;20435;-74
2021/12/11 05:48:59;;;;;;;19.70;16.50;;;;;;;;;;5025286;28;20431;-78
2021/12/11 05:51:25;;;;;;;22.50;16.43;;;;;;;;;;5024782;28;20184;-73
2021/12/11 05:53:53;;;;;;;21.70;15.57;;;;;;;;;;5025933;28;20287;-73
2021/12/11 05:56:19;;;;;;;23.40;16.80;;;;;;;;;;5025381;28;20238;-75
2021/12/11 06:01:13;;;;;;;22.17;16.40;;;;;;;;;;5023032;28;20188;-74
2021/12/11 06:03:38;;;;;;;22.50;16.00;;;;;;;;;;5021352;28;20466;-74
2021/12/11 06:06:04;;;;;;;22.00;17.27;;;;;;;;;;5024823;28;21041;-73
2021/12/11 06:08:31;;;;;;;23.83;17.70;;;;;;;;;;5029790;28;20180;-73
2021/12/11 06:10:57;;;;;;;20.20;16.10;;;;;;;;;;5021872;28;20427;-75
2021/12/11 06:13:24;;;;;;;19.30;15.27;;;;;;;;;;5025747;28;20459;-74
2021/12/11 06:15:50;;;;;;;22.00;17.50;;;;;;;;;;5022525;28;20191;-74
2021/12/11 06:18:18;;;;;;;22.93;18.47;;;;;;;;;;5028236;28;20438;-78
2021/12/11 06:20:44;;;;;;;20.83;16.47;;;;;;;;;;5024824;28;20188;-73
2021/12/11 06:23:09;;;;;;;19.53;16.50;;;;;;;;;;5025576;28;20468;-73
2021/12/11 06:25:34;;;;;;;21.33;16.40;;;;;;;;;;5027018;28;22095;-74
2021/12/11 06:28:00;;;;;;;22.47;16.30;;;;;;;;;;5023490;28;20205;-74
2021/12/11 06:30:27;;;;;;;22.27;16.83;;;;;;;;;;5027086;28;20711;-73
2021/12/11 06:32:53;;;;;;;22.00;16.77;;;;;;;;;;5027794;28;20447;-74
2021/12/11 06:35:21;;;;;;;20.27;16.70;;;;;;;;;;5027190;28;20483;-73
2021/12/11 06:37:46;;;;;;;20.10;15.70;;;;;;;;;;5027708;28;20527;-74
2021/12/11 06:40:13;;;;;;;24.30;16.20;;;;;;;;;;5027384;28;20529;-74
2021/12/11 06:42:38;;;;;;;18.47;15.93;;;;;;;;;;5026422;28;20672;-74
2021/12/11 06:45:04;;;;;;;20.50;15.17;;;;;;;;;;5025660;28;20468;-73
2021/12/11 06:47:30;;;;;;;23.43;16.40;;;;;;;;;;5021159;28;20184;-74
2021/12/11 06:49:55;;;;;;;20.30;16.73;;;;;;;;;;5024733;28;20206;-73
2021/12/11 06:52:22;;;;;;;21.07;16.20;;;;;;;;;;5017624;28;20184;-75
2021/12/11 06:54:47;;;;;;;23.00;16.37;;;;;;;;;;5027043;28;20219;-74
2021/12/11 06:57:13;;;;;;;21.40;16.00;;;;;;;;;;5025421;28;20439;-75
2021/12/11 06:59:38;;;;;;;23.63;17.40;;;;;;;;;;5024160;28;20175;-73
2021/12/11 07:02:05;;;;;;;21.20;16.60;;;;;;;;;;5024472;28;22376;-74
2021/12/11 07:04:30;;;;;;;20.33;16.13;;;;;;;;;;5021712;28;20211;-74
2021/12/11 07:06:56;;;;;;;21.37;16.53;;;;;;;;;;5027339;28;20616;-72
2021/12/11 07:09:23;;;;;;;25.97;17.37;;;;;;;;;;5027772;28;20910;-74
2021/12/11 07:11:51;;;;;;;24.83;17.43;;;;;;;;;;5028114;28;20180;-74
2021/12/11 07:14:18;;;;;;;21.43;17.07;;;;;;;;;;5030255;28;20501;-75
2021/12/11 07:16:43;;;;;;;20.87;16.43;;;;;;;;;;5029243;28;20946;-73
2021/12/11 07:19:09;;;;;;;25.20;18.30;;;;;;;;;;5031353;28;20454;-74
2021/12/11 07:21:35;;;;;;;20.27;15.63;;;;;;;;;;5032383;28;20267;-74
2021/12/11 07:24:06;;;;;;;23.00;15.00;;;;;;;;;;5030031;28;20226;-75
2021/12/11 07:26:33;;;;;;;27.03;18.57;;;;;;;;;;5029866;28;20215;-74
2021/12/11 07:29:10;;;;;;;23.70;17.80;;;;;;;;;;5027965;28;20523;-74
2021/12/11 07:31:36;;;;;;;27.00;18.63;;;;;;;;;;5022595;28;20433;-74
2021/12/11 07:34:01;;;;;;;24.40;18.40;;;;;;;;;;5024548;28;20470;-76
2021/12/11 07:36:27;;;;;;;24.03;18.37;;;;;;;;;;5023518;28;20433;-75
2021/12/11 07:38:53;;;;;;;24.40;17.00;;;;;;;;;;5024391;28;20207;-73
2021/12/11 07:41:20;;;;;;;24.53;17.67;;;;;;;;;;5028716;28;20443;-73
2021/12/11 07:43:46;;;;;;;20.93;16.87;;;;;;;;;;5030082;28;20474;-75
2021/12/11 07:46:13;;;;;;;25.27;18.63;;;;;;;;;;5025357;28;20431;-74
2021/12/11 07:48:39;;;;;;;24.00;17.73;;;;;;;;;;5024662;28;20481;-74
2021/12/11 07:51:07;;;;;;;24.70;18.30;;;;;;;;;;5023281;28;20443;-73
2021/12/11 07:53:33;;;;;;;24.17;18.47;;;;;;;;;;5022118;28;20476;-74
2021/12/11 07:55:58;;;;;;;21.20;17.53;;;;;;;;;;5022476;28;20441;-74
2021/12/11 07:58:24;;;;;;;22.07;16.97;;;;;;;;;;5024307;28;20483;-75
2021/12/11 08:00:59;;;;;;;24.97;18.80;;;;;;;;;;5024173;28;20241;-73
2021/12/11 08:03:24;;;;;;;23.70;20.25;;;;;;;;;;5029806;28;20475;-73
2021/12/11 08:05:51;;;;;;;22.47;18.80;;;;;;;;;;5031525;28;20270;-72
2021/12/11 08:08:19;;;;;;;23.20;19.00;;;;;;;;;;5030104;28;20649;-74
2021/12/11 08:10:46;;;;;;;24.60;18.27;;;;;;;;;;5026948;28;20473;-75
2021/12/11 08:13:12;;;;;;;21.40;16.70;;;;;;;;;;5023548;28;20429;-75
2021/12/11 08:15:38;;;;;;;21.03;17.90;;;;;;;;;;5030439;28;20447;-75
2021/12/11 08:18:05;;;;;;;23.67;19.50;;;;;;;;;;5026077;28;20460;-75
2021/12/11 08:20:31;;;;;;;23.27;17.53;;;;;;;;;;5044525;28;20433;-73
2021/12/11 08:22:57;;;;;;;30.20;19.70;;;;;;;;;;5023662;28;20455;-74
2021/12/11 08:25:25;;;;;;;24.10;18.47;;;;;;;;;;5028323;28;20490;-74
2021/12/11 08:27:50;;;;;;;25.13;18.43;;;;;;;;;;5030822;28;20329;-73
2021/12/11 08:30:16;;;;;;;23.13;17.60;;;;;;;;;;5027515;28;20434;-74
2021/12/11 08:32:41;;;;;;;18.37;15.60;;;;;;;;;;5027617;28;20183;-73
2021/12/11 08:35:09;;;;;;;20.87;17.20;;;;;;;;;;5026463;28;20249;-72
2021/12/11 08:37:36;;;;;;;23.80;17.03;;;;;;;;;;5032007;28;20180;-72
2021/12/11 08:40:01;;;;;;;23.90;18.00;;;;;;;;;;5023483;28;20803;-73
2021/12/11 08:42:27;;;;;;;21.70;16.93;;;;;;;;;;5030092;28;20462;-72
2021/12/11 08:44:59;;;;;;;23.37;16.63;;;;;;;;;;5023810;28;20238;-73
2021/12/11 08:47:24;;;;;;;23.00;17.53;;;;;;;;;;5027759;28;20267;-75
2021/12/11 08:49:50;;;;;;;23.50;17.50;;;;;;;;;;5027931;28;20961;-76
2021/12/11 08:52:36;;;;;;;23.30;17.73;;;;;;;;;;5024325;28;20268;-74
2021/12/11 08:55:04;;;;;;;21.87;17.30;;;;;;;;;;5024702;28;20553;-73
2021/12/11 08:57:36;;;;;;;25.83;17.47;;;;;;;;;;5022389;28;20458;-72
2021/12/11 09:00:08;;;;;;;21.07;16.13;;;;;;;;;;5023455;28;20431;-72
2021/12/11 09:02:36;;;;;;;25.27;18.67;;;;;;;;;;5028515;28;20493;-74
2021/12/11 09:05:05;;;;;;;21.63;16.83;;;;;;;;;;5026750;28;20497;-73
2021/12/11 09:07:30;;;;;;;26.47;18.93;;;;;;;;;;5023857;28;20434;-74
2021/12/11 09:10:04;;;;;;;23.23;18.57;;;;;;;;;;5029122;28;20422;-74
2021/12/11 09:12:32;;;;;;;24.40;18.10;;;;;;;;;;5027290;28;20207;-73
2021/12/11 09:15:09;;;;;;;21.53;18.07;;;;;;;;;;5024818;28;21087;-73
2021/12/11 09:17:58;;;;;;;26.03;18.00;;;;;;;;;;5031659;28;20476;-75
2021/12/11 09:20:33;;;;;;;21.60;17.10;;;;;;;;;;5025179;28;20958;-73
2021/12/11 09:23:05;;;;;;;22.03;17.60;;;;;;;;;;5028953;28;20465;-74
2021/12/11 09:25:41;;;;;;;26.30;19.27;;;;;;;;;;5028385;28;20430;-73
2021/12/11 09:28:08;;;;;;;26.33;18.47;;;;;;;;;;5030055;28;20509;-73
2021/12/11 09:30:36;;;;;;;26.93;18.53;;;;;;;;;;5026945;28;20512;-74
2021/12/11 09:33:08;;;;;;;24.97;18.40;;;;;;;;;;5028101;28;20457;-74
2021/12/11 09:35:36;;;;;;;27.63;18.37;;;;;;;;;;5030592;28;20808;-74
2021/12/11 09:38:34;;;;;;;24.03;16.90;;;;;;;;;;5028482;28;20446;-75
2021/12/11 09:40:59;;;;;;;20.77;17.00;;;;;;;;;;5014433;28;20867;-76
2021/12/11 09:43:34;;;;;;;22.33;17.00;;;;;;;;;;5029806;28;20500;-76
2021/12/11 09:45:59;;;;;;;21.47;16.63;;;;;;;;;;5029805;28;20194;-74
2021/12/11 09:48:25;;;;;;;21.47;17.33;;;;;;;;;;5025671;28;20433;-74
2021/12/11 09:50:58;;;;;;;24.60;16.70;;;;;;;;;;5029277;28;20180;-74
2021/12/11 09:53:44;;;;;;;22.20;17.60;;;;;;;;;;5029246;28;20235;-72
2021/12/11 09:56:13;;;;;;;21.13;16.97;;;;;;;;;;5028722;28;20450;-73
2021/12/11 09:58:40;;;;;;;22.93;17.47;;;;;;;;;;5034254;28;20470;-76
2021/12/11 10:01:10;;;;;;;24.53;18.10;;;;;;;;;;5029498;28;20454;-73
2021/12/11 10:03:40;;;;;;;23.10;16.67;;;;;;;;;;5029348;28;20470;-74
2021/12/11 10:06:13;;;;;;;21.27;15.70;;;;;;;;;;5030911;28;20423;-74
2021/12/11 10:08:42;;;;;;;22.37;16.20;;;;;;;;;;5031071;28;20411;-76
2021/12/11 10:11:30;;;;;;;24.70;17.00;;;;;;;;;;5029502;28;21736;-73
2021/12/11 10:14:17;;;;;;;25.17;16.20;;;;;;;;;;5030843;28;20454;-72
2021/12/11 10:16:45;;;;;;;24.50;16.83;;;;;;;;;;5028234;28;20430;-73
2021/12/11 10:19:11;;;;;;;23.93;16.70;;;;;;;;;;5023541;28;20438;-72
2021/12/11 10:21:38;;;;;;;23.83;17.23;;;;;;;;;;5025870;28;20915;-72
2021/12/11 10:24:07;;;;;;;22.80;16.20;;;;;;;;;;5028890;28;22384;-72
2021/12/11 10:26:33;;;;;;;21.90;15.23;;;;;;;;;;5024715;28;20445;-73
2021/12/11 10:29:00;;;;;;;22.27;14.90;;;;;;;;;;5018752;28;20434;-71
2021/12/11 10:31:36;;;;;;;24.03;16.30;;;;;;;;;;5008276;28;21160;-73
2021/12/11 10:34:04;;;;;;;22.20;16.40;;;;;;;;;;5022672;28;21034;-71
2021/12/11 10:36:31;;;;;;;26.93;15.77;;;;;;;;;;5021577;28;20477;-72
2021/12/11 10:38:58;;;;;;;25.40;17.03;;;;;;;;;;5024584;28;20430;-73
2021/12/11 10:41:25;;;;;;;20.03;15.33;;;;;;;;;;5025795;28;20439;-75
2021/12/11 10:43:56;;;;;;;26.73;21.07;;;;;;;;;;5024490;28;20496;-72
2021/12/11 10:46:23;;;;;;;20.20;15.03;;;;;;;;;;5008037;28;20435;-72
2021/12/11 10:48:49;;;;;;;24.03;15.57;;;;;;;;;;5010782;28;20440;-71
2021/12/11 10:51:17;;;;;;;19.03;14.30;;;;;;;;;;5017273;28;20440;-72
2021/12/11 10:53:46;;;;;;;21.90;16.30;;;;;;;;;;5024087;28;20200;-73
2021/12/11 10:56:12;;;;;;;22.50;15.00;;;;;;;;;;5020087;28;20446;-74
2021/12/11 10:58:48;;;;;;;21.70;15.93;;;;;;;;;;5017780;28;20533;-74
2021/12/11 11:01:18;;;;;;;20.97;15.03;;;;;;;;;;5010314;28;20438;-70
2021/12/11 11:03:47;;;;;;;22.13;14.37;;;;;;;;;;5017444;28;20918;-71
2021/12/11 11:06:12;;;;;;;24.07;15.67;;;;;;;;;;5019372;28;20442;-71
2021/12/11 11:08:38;;;;;;;21.13;15.77;;;;;;;;;;5022193;28;20443;-68
2021/12/11 11:11:05;;;;;;;21.33;16.33;;;;;;;;;;5020938;28;20348;-70
2021/12/11 11:13:31;;;;;;;19.10;14.07;;;;;;;;;;5014768;28;20776;-72
2021/12/11 11:15:56;;;;;;;19.23;14.40;;;;;;;;;;5020279;28;20431;-71
2021/12/11 11:18:23;;;;;;;27.70;15.63;;;;;;;;;;5022666;28;20439;-72
2021/12/11 11:20:50;;;;;;;23.97;14.73;;;;;;;;;;5029161;28;20184;-72
2021/12/11 11:23:16;;;;;;;18.20;13.77;;;;;;;;;;5024685;28;20922;-72
2021/12/11 11:25:44;;;;;;;17.53;13.97;;;;;;;;;;5040800;28;21987;-74
2021/12/11 11:28:12;;;;;;;19.23;15.20;;;;;;;;;;5029684;28;20185;-74
2021/12/11 11:30:41;;;;;;;23.50;14.90;;;;;;;;;;5026140;28;20426;-74
2021/12/11 11:33:08;;;;;;;25.23;15.73;;;;;;;;;;5026910;28;21433;-74
2021/12/11 11:35:36;;;;;;;21.90;15.47;;;;;;;;;;5026246;28;20437;-71
2021/12/11 11:38:03;;;;;;;22.97;15.37;;;;;;;;;;5024926;28;20439;-69
2021/12/11 11:40:30;;;;;;;20.73;15.33;;;;;;;;;;5026970;28;20443;-73
2021/12/11 11:42:57;;;;;;;26.17;15.00;;;;;;;;;;5030962;28;21642;-73
2021/12/11 11:45:23;;;;;;;22.57;14.90;;;;;;;;;;5030883;28;20429;-73
2021/12/11 11:47:48;;;;;;;21.33;15.43;;;;;;;;;;5028786;28;20489;-75
2021/12/11 11:50:16;;;;;;;20.40;14.67;;;;;;;;;;5045851;28;20792;-73
2021/12/11 11:52:42;;;;;;;21.30;14.20;;;;;;;;;;5024746;28;20189;-74
2021/12/11 11:55:18;;;;;;;29.63;15.10;;;;;;;;;;5028599;28;20527;-73
2021/12/11 11:57:47;;;;;;;22.50;13.63;;;;;;;;;;5028436;28;21736;-73
2021/12/11 12:00:22;;;;;;;21.53;14.83;;;;;;;;;;5029833;28;20452;-73
2021/12/11 12:02:47;;;;;;;20.93;15.07;;;;;;;;;;5027708;28;20566;-75
2021/12/11 12:05:12;;;;;;;23.57;14.67;;;;;;;;;;5026023;28;20851;-73
2021/12/11 12:07:38;;;;;;;19.13;13.33;;;;;;;;;;5026012;28;20229;-73
2021/12/11 12:10:08;;;;;;;23.27;15.77;;;;;;;;;;5028861;28;20188;-73
2021/12/11 12:12:33;;;;;;;22.50;14.30;;;;;;;;;;5020170;28;20191;-73
2021/12/11 12:14:59;;;;;;;20.73;13.97;;;;;;;;;;5032634;28;20474;-72
2021/12/11 12:17:26;;;;;;;22.20;15.70;;;;;;;;;;5029812;28;20184;-73
2021/12/11 12:19:53;;;;;;;20.90;15.17;;;;;;;;;;5032854;28;20253;-73
2021/12/11 12:22:19;;;;;;;26.40;16.87;;;;;;;;;;5027810;28;20445;-74
2021/12/11 12:24:46;;;;;;;24.60;16.50;;;;;;;;;;5033085;28;20450;-74
2021/12/11 12:27:13;;;;;;;25.60;15.80;;;;;;;;;;5033630;28;20475;-75
2021/12/11 12:29:39;;;;;;;22.83;15.53;;;;;;;;;;5031710;28;20522;-76
2021/12/11 12:32:11;;;;;;;25.10;16.00;;;;;;;;;;5032887;28;20426;-73
2021/12/11 12:34:37;;;;;;;23.00;14.50;;;;;;;;;;5029267;28;20451;-74
2021/12/11 12:37:06;;;;;;;26.50;15.93;;;;;;;;;;5030733;28;20456;-74
2021/12/11 12:39:38;;;;;;;22.30;14.80;;;;;;;;;;5028413;28;20184;-74
2021/12/11 12:42:18;;;;;;;26.57;15.63;;;;;;;;;;5022393;28;20520;-74
2021/12/11 12:44:44;;;;;;;24.60;16.37;;;;;;;;;;5032057;28;20474;-74
2021/12/11 12:47:10;;;;;;;20.23;14.57;;;;;;;;;;5030729;28;20434;-76
2021/12/11 12:49:38;;;;;;;23.57;15.47;;;;;;;;;;5029781;28;20483;-77
2021/12/11 12:52:08;;;;;;;22.93;15.10;;;;;;;;;;5024994;28;20184;-73
2021/12/11 12:54:33;;;;;;;25.20;16.10;;;;;;;;;;5029566;28;20442;-75
2021/12/11 12:57:11;;;;;;;22.50;16.13;;;;;;;;;;5027778;28;20438;-75
2021/12/11 12:59:38;;;;;;;23.90;16.10;;;;;;;;;;5028886;28;20176;-74
2021/12/11 13:02:06;;;;;;;19.63;13.77;;;;;;;;;;5024070;28;20437;-75
2021/12/11 13:04:34;;;;;;;29.83;15.93;;;;;;;;;;5031768;28;20462;-74
2021/12/11 13:07:01;;;;;;;20.60;14.23;;;;;;;;;;5030972;28;20575;-72
2021/12/11 13:09:30;;;;;;;22.20;16.23;;;;;;;;;;5026090;28;20521;-73
2021/12/11 13:12:01;;;;;;;26.37;17.17;;;;;;;;;;5031839;28;20472;-74
2021/12/11 13:14:28;;;;;;;23.80;15.43;;;;;;;;;;5029178;28;20946;-74
2021/12/11 13:16:57;;;;;;;20.50;14.90;;;;;;;;;;5025212;28;20520;-73
2021/12/11 13:19:24;;;;;;;21.83;16.00;;;;;;;;;;5016336;28;20427;-72
2021/12/11 13:21:52;;;;;;;23.93;17.33;;;;;;;;;;5027490;28;20517;-73
2021/12/11 13:24:17;;;;;;;23.00;16.00;;;;;;;;;;5024683;28;20482;-75
2021/12/11 13:26:45;;;;;;;25.40;15.57;;;;;;;;;;5029539;28;20442;-76
2021/12/11 13:29:12;;;;;;;20.70;16.23;;;;;;;;;;5018618;28;20179;-73
2021/12/11 13:31:49;;;;;;;27.20;17.60;;;;;;;;;;5025294;28;20438;-75
2021/12/11 13:34:14;;;;;;;25.00;17.10;;;;;;;;;;5025448;28;20461;-74
2021/12/11 13:36:41;;;;;;;24.17;17.13;;;;;;;;;;5026035;28;20500;-73
2021/12/11 13:39:07;;;;;;;25.10;16.53;;;;;;;;;;5022846;28;20905;-73
2021/12/11 13:41:35;;;;;;;26.00;16.23;;;;;;;;;;5025488;28;21202;-73
2021/12/11 13:44:01;;;;;;;27.60;16.13;;;;;;;;;;5021910;28;20517;-74
2021/12/11 13:46:27;;;;;;;20.60;15.33;;;;;;;;;;5020015;28;20517;-74
2021/12/11 13:48:52;;;;;;;25.83;15.80;;;;;;;;;;5023237;28;20629;-74
2021/12/11 13:51:22;;;;;;;27.77;17.37;;;;;;;;;;5025166;28;20188;-75
2021/12/11 13:53:48;;;;;;;24.47;16.13;;;;;;;;;;5034942;28;20199;-75
2021/12/11 13:56:17;;;;;;;23.20;17.23;;;;;;;;;;5025691;28;20508;-74
2021/12/11 13:58:42;;;;;;;21.30;15.40;;;;;;;;;;5032548;28;20473;-74
2021/12/11 14:01:12;;;;;;;20.23;15.53;;;;;;;;;;5030261;28;20434;-73
2021/12/11 14:03:39;;;;;;;20.53;16.10;;;;;;;;;;5028319;28;20212;-72
2021/12/11 14:06:07;;;;;;;24.13;16.60;;;;;;;;;;5038604;28;20857;-72
2021/12/11 14:08:34;;;;;;;25.77;16.63;;;;;;;;;;5029981;28;20441;-76
2021/12/11 14:11:00;;;;;;;21.00;16.17;;;;;;;;;;5035013;28;20430;-73
2021/12/11 14:13:25;;;;;;;22.90;16.10;;;;;;;;;;5033230;28;20457;-73
2021/12/11 14:15:52;;;;;;;23.67;15.40;;;;;;;;;;5033605;28;20451;-73
2021/12/11 14:18:18;;;;;;;21.20;15.67;;;;;;;;;;5031450;28;20187;-71
2021/12/11 14:20:43;;;;;;;24.63;16.77;;;;;;;;;;5031478;28;20974;-74
2021/12/11 14:23:10;;;;;;;22.43;15.37;;;;;;;;;;5027592;28;20679;-72
2021/12/11 14:25:36;;;;;;;21.27;16.00;;;;;;;;;;5024627;28;20691;-74
2021/12/11 14:28:03;;;;;;;21.33;15.80;;;;;;;;;;5035998;28;20530;-72
2021/12/11 14:30:29;;;;;;;25.80;15.93;;;;;;;;;;5029936;28;20183;-76
2021/12/11 14:32:55;;;;;;;24.13;16.43;;;;;;;;;;5035058;28;20445;-76
2021/12/11 14:35:22;;;;;;;22.23;16.27;;;;;;;;;;5026203;28;20453;-71
2021/12/11 14:37:47;;;;;;;28.10;16.80;;;;;;;;;;5033856;28;20199;-74
2021/12/11 14:40:14;;;;;;;26.53;16.70;;;;;;;;;;5037225;28;20431;-76